This is the latest recevied weather packets stored in our database for station/object SP3SWJ-13. If no packets are shown the sender has not sent any weather packets the latest 10 day(s).
| Time | Temp. | Humidity | Pressure | Rain* | Wind** | Luminosity | Snow |
|---|---|---|---|---|---|---|---|
| 1777399513 | 11.11° C | 38% | 1014.8 hPa | - | - | 3 W/m² | - |
| 1777399212 | 11.11° C | 38% | 1014.8 hPa | - | - | 4 W/m² | - |
| 1777398911 | 11.67° C | 35% | 1014.8 hPa | - | - | 6 W/m² | - |
| 1777398610 | 12.22° C | 31% | 1014.9 hPa | - | - | 7 W/m² | - |
| 1777398309 | 12.22° C | 30% | 1014.7 hPa | - | - | 9 W/m² | - |
| 1777398008 | 12.78° C | 30% | 1014.7 hPa | - | - | 11 W/m² | - |
| 1777397707 | 12.78° C | 28% | 1014.8 hPa | - | - | 12 W/m² | - |
| 1777397406 | 13.33° C | 26% | 1014.7 hPa | - | - | 14 W/m² | - |
| 1777397105 | 13.33° C | 25% | 1014.8 hPa | - | - | 16 W/m² | - |
| 1777396804 | 14.44° C | 23% | 1014.7 hPa | - | - | 19 W/m² | - |
| 1777396503 | 15° C | 23% | 1014.7 hPa | - | - | 27 W/m² | - |
| 1777396201 | 14.44° C | 23% | 1014.8 hPa | - | - | 30 W/m² | - |
| 1777395900 | 15° C | 23% | 1014.7 hPa | - | - | 33 W/m² | - |
| 1777395599 | 14.44° C | 24% | 1014.7 hPa | - | - | 37 W/m² | - |
| 1777395298 | 13.89° C | 25% | 1014.8 hPa | - | - | 40 W/m² | - |
| 1777394997 | 14.44° C | 24% | 1014.7 hPa | - | - | 45 W/m² | - |
| 1777394697 | 15.56° C | 22% | 1014.7 hPa | - | - | 50 W/m² | - |
| 1777394396 | 15° C | 23% | 1014.7 hPa | - | - | 57 W/m² | - |
| 1777394094 | 15° C | 23% | 1014.7 hPa | - | - | 67 W/m² | - |
| 1777393793 | 14.44° C | 23% | 1014.7 hPa | - | - | 77 W/m² | - |
| 1777393492 | 13.89° C | 23% | 1014.7 hPa | - | - | 88 W/m² | - |
| 1777393192 | 14.44° C | 24% | 1014.7 hPa | - | - | 99 W/m² | - |
| 1777392891 | 15° C | 22% | 1014.7 hPa | - | - | 112 W/m² | - |
| 1777392590 | 15.56° C | 22% | 1014.8 hPa | - | - | 123 W/m² | - |
| 1777392289 | 15° C | 23% | 1014.9 hPa | - | - | 135 W/m² | - |
* Rain since midnight (hover to see other rain measurements)
** Current wind speed in m/s (hover to see current wind gust speed)